Richland, Washington
Current Conditions -  °F | °C
As of 12:53 PM on Monday 24 Nov 2014 (Local Time) from KPSC Reporting Station
Clear Clear  
Wind Chill: 49°   Ceiling: Unl
Heat Index: 49°   Visibility: 10mi
Dew Point: 41°   Wind: 3mph
Humidity: 74%   Direction: 160°SSE
Pressure: 30.31"   Gusts: NA
Location:  46.27°N, 119.27°W
Report Text: KPSC 242053Z 16003KT 10SM CLR 09/05 A3031 RMK AO2 PRESFR SLP267 T00940050 58028
Loading
Personal Weather Stations






























Interactive Weather Map New forecast layout! Learn more

10-Day Weather Forecast

Advertisements
Track Severe Weather on mobile